Time;durP1;ratioP1;P1;durP2;ratioP2;P2;SDS_P1;SDS_P2;PMS_P1;PMS_P2;Temp;Humidity;BMP_temperature;BMP_pressure;BME280_temperature;BME280_humidity;BME280_pressure;Samples;Min_cycle;Max_cycle;Signal;HPM_P1;HPM_P2
2024/01/29 00:00:47;;;;;;;3.25;1.50;;;;;;;;;;5040127;28;20040;-80
2024/01/29 00:03:12;;;;;;;5.57;2.42;;;;;;;;;;5039702;28;20628;-80
2024/01/29 00:05:38;;;;;;;4.00;1.52;;;;;;;;;;5031819;28;20037;-80
2024/01/29 00:08:03;;;;;;;4.80;2.20;;;;;;;;;;5032561;28;20071;-78
2024/01/29 00:10:29;;;;;;;2.40;1.42;;;;;;;;;;5034353;28;20166;-80
2024/01/29 00:12:54;;;;;;;4.22;1.70;;;;;;;;;;5022238;28;20106;-79
2024/01/29 00:15:20;;;;;;;5.55;2.92;;;;;;;;;;5028939;28;20053;-79
2024/01/29 00:17:45;;;;;;;6.68;2.80;;;;;;;;;;5013643;28;20650;-79
2024/01/29 00:20:11;;;;;;;6.00;3.33;;;;;;;;;;5030906;28;20519;-79
2024/01/29 00:22:37;;;;;;;5.55;2.50;;;;;;;;;;5038570;28;20505;-79
2024/01/29 00:25:02;;;;;;;4.72;1.95;;;;;;;;;;5027587;28;20041;-79
2024/01/29 00:27:28;;;;;;;2.63;1.50;;;;;;;;;;5037328;28;20144;-80
2024/01/29 00:29:53;;;;;;;6.05;3.13;;;;;;;;;;5028898;28;20056;-79
2024/01/29 00:32:19;;;;;;;5.10;2.20;;;;;;;;;;5036580;28;20099;-78
2024/01/29 00:34:46;;;;;;;8.65;4.00;;;;;;;;;;5021629;28;20128;-79
2024/01/29 00:37:11;;;;;;;2.50;1.45;;;;;;;;;;5031395;28;20049;-79
2024/01/29 00:39:37;;;;;;;2.95;1.95;;;;;;;;;;5014776;28;20455;-80
2024/01/29 00:42:03;;;;;;;3.72;2.28;;;;;;;;;;5036285;28;20082;-80
2024/01/29 00:44:28;;;;;;;3.85;2.55;;;;;;;;;;5041375;28;20033;-79
2024/01/29 00:46:53;;;;;;;4.22;2.10;;;;;;;;;;5033309;28;20041;-80
2024/01/29 00:49:19;;;;;;;4.40;2.20;;;;;;;;;;5020655;28;20586;-80
2024/01/29 00:51:44;;;;;;;2.22;1.33;;;;;;;;;;5028272;28;20577;-81
2024/01/29 00:54:09;;;;;;;4.05;1.33;;;;;;;;;;5024459;28;20056;-80
2024/01/29 00:56:35;;;;;;;7.90;3.25;;;;;;;;;;5040241;28;20041;-80
2024/01/29 00:59:00;;;;;;;3.25;2.30;;;;;;;;;;5028072;28;20505;-80
2024/01/29 01:01:26;;;;;;;10.43;4.65;;;;;;;;;;5037030;28;20058;-80
2024/01/29 01:03:51;;;;;;;4.63;2.58;;;;;;;;;;5035782;28;20037;-79
2024/01/29 01:06:16;;;;;;;6.28;3.40;;;;;;;;;;5041305;28;20128;-79
2024/01/29 01:08:42;;;;;;;6.82;3.10;;;;;;;;;;5013175;28;20050;-78
2024/01/29 01:11:07;;;;;;;2.70;1.83;;;;;;;;;;5024921;28;20087;-79
2024/01/29 01:13:33;;;;;;;7.35;3.28;;;;;;;;;;5029422;28;20040;-79
2024/01/29 01:15:58;;;;;;;4.20;2.20;;;;;;;;;;5033787;28;20068;-78
2024/01/29 01:18:24;;;;;;;2.83;1.77;;;;;;;;;;5038555;28;20049;-79
2024/01/29 01:20:49;;;;;;;5.45;3.17;;;;;;;;;;5035847;28;20041;-79
2024/01/29 01:23:14;;;;;;;6.75;3.85;;;;;;;;;;5026981;28;20046;-79
2024/01/29 01:25:40;;;;;;;7.72;3.22;;;;;;;;;;5034929;28;20047;-79
2024/01/29 01:28:06;;;;;;;3.35;1.38;;;;;;;;;;5030327;28;20071;-79
2024/01/29 01:30:31;;;;;;;10.32;5.78;;;;;;;;;;5017128;28;20041;-79
2024/01/29 01:32:57;;;;;;;4.75;2.38;;;;;;;;;;5031745;28;20037;-79
2024/01/29 01:35:22;;;;;;;12.52;5.40;;;;;;;;;;5035090;28;20464;-79
2024/01/29 01:37:47;;;;;;;3.63;2.25;;;;;;;;;;5019493;28;20049;-78
2024/01/29 01:40:13;;;;;;;5.75;3.17;;;;;;;;;;5039799;28;20041;-79
2024/01/29 01:42:41;;;;;;;10.77;5.75;;;;;;;;;;5021628;28;20548;-79
2024/01/29 01:45:07;;;;;;;4.00;2.03;;;;;;;;;;5027233;28;20095;-78
2024/01/29 01:47:32;;;;;;;8.35;4.10;;;;;;;;;;5032405;28;20060;-78
2024/01/29 01:49:58;;;;;;;10.75;5.18;;;;;;;;;;5032010;28;20040;-79
2024/01/29 01:52:23;;;;;;;10.32;4.95;;;;;;;;;;5018716;28;20563;-79
2024/01/29 01:54:49;;;;;;;3.72;2.20;;;;;;;;;;5033081;28;20052;-80
2024/01/29 01:57:15;;;;;;;3.90;1.98;;;;;;;;;;5034448;28;20040;-79
2024/01/29 01:59:41;;;;;;;1.70;1.23;;;;;;;;;;5038088;28;20051;-79
2024/01/29 02:02:07;;;;;;;4.07;2.55;;;;;;;;;;5020754;28;20040;-79
2024/01/29 02:04:33;;;;;;;2.25;1.52;;;;;;;;;;5013997;28;20072;-79
2024/01/29 02:06:59;;;;;;;3.67;2.10;;;;;;;;;;5036060;28;20521;-79
2024/01/29 02:09:24;;;;;;;3.25;2.20;;;;;;;;;;5024981;28;20032;-79
2024/01/29 02:11:50;;;;;;;7.25;3.35;;;;;;;;;;5044012;28;20037;-79
2024/01/29 02:14:15;;;;;;;2.95;1.13;;;;;;;;;;5035784;28;20036;-79
2024/01/29 02:16:40;;;;;;;1.63;1.27;;;;;;;;;;5031887;28;20110;-80
2024/01/29 02:19:15;;;;;;;3.67;1.98;;;;;;;;;;5015240;28;20040;-80
2024/01/29 02:21:40;;;;;;;1.65;1.30;;;;;;;;;;5014716;28;20498;-79
2024/01/29 02:24:06;;;;;;;2.90;1.40;;;;;;;;;;5027567;28;20041;-79
2024/01/29 02:26:31;;;;;;;2.00;1.20;;;;;;;;;;5028783;28;20390;-78
2024/01/29 02:28:57;;;;;;;3.35;1.20;;;;;;;;;;5030648;28;20123;-78
2024/01/29 02:31:22;;;;;;;2.38;1.65;;;;;;;;;;5034747;28;20040;-78
2024/01/29 02:33:48;;;;;;;3.38;1.40;;;;;;;;;;5020923;28;20044;-80
2024/01/29 02:36:13;;;;;;;3.47;2.03;;;;;;;;;;5037920;28;20033;-79
2024/01/29 02:38:38;;;;;;;3.00;1.58;;;;;;;;;;5028586;28;20037;-79
2024/01/29 02:41:04;;;;;;;5.50;2.92;;;;;;;;;;5028413;28;20416;-80
2024/01/29 02:43:29;;;;;;;16.08;8.00;;;;;;;;;;5019533;28;20425;-80
2024/01/29 02:45:54;;;;;;;14.15;5.88;;;;;;;;;;5030538;28;20063;-79
2024/01/29 02:48:20;;;;;;;18.80;8.55;;;;;;;;;;5017464;28;20043;-78
2024/01/29 02:50:45;;;;;;;12.50;6.75;;;;;;;;;;5028716;28;20119;-79
2024/01/29 02:53:11;;;;;;;13.57;6.00;;;;;;;;;;5036618;28;20043;-79
2024/01/29 02:55:36;;;;;;;3.08;1.85;;;;;;;;;;5034644;28;20146;-79
2024/01/29 02:58:01;;;;;;;2.88;1.23;;;;;;;;;;5024168;28;20188;-78
2024/01/29 03:00:27;;;;;;;6.80;4.30;;;;;;;;;;5027196;28;20068;-79
2024/01/29 03:02:53;;;;;;;6.30;3.40;;;;;;;;;;5016076;28;20037;-78
2024/01/29 03:05:18;;;;;;;1.88;1.13;;;;;;;;;;5029938;28;20051;-79
2024/01/29 03:07:43;;;;;;;4.15;2.00;;;;;;;;;;5039712;28;20033;-78
2024/01/29 03:10:09;;;;;;;3.30;1.50;;;;;;;;;;5030037;28;20134;-79
2024/01/29 03:12:34;;;;;;;2.63;1.70;;;;;;;;;;5038757;28;20074;-79
2024/01/29 03:14:59;;;;;;;2.50;1.60;;;;;;;;;;5023108;28;20045;-79
2024/01/29 03:17:25;;;;;;;1.77;1.02;;;;;;;;;;5035360;28;20072;-79
2024/01/29 03:19:50;;;;;;;2.25;1.35;;;;;;;;;;5027367;28;20060;-79
2024/01/29 03:22:16;;;;;;;2.20;1.35;;;;;;;;;;5019217;28;20055;-79
2024/01/29 03:24:41;;;;;;;1.77;1.08;;;;;;;;;;5021796;28;20041;-79
2024/01/29 03:27:06;;;;;;;4.07;1.65;;;;;;;;;;5023970;28;20037;-78
2024/01/29 03:29:32;;;;;;;3.88;2.00;;;;;;;;;;5017252;28;20119;-79
2024/01/29 03:31:57;;;;;;;2.20;1.60;;;;;;;;;;5010137;28;20502;-79
2024/01/29 03:34:22;;;;;;;1.77;1.33;;;;;;;;;;5013125;28;20044;-79
2024/01/29 03:36:48;;;;;;;5.18;2.53;;;;;;;;;;5039533;28;20056;-79
2024/01/29 03:39:13;;;;;;;5.80;3.28;;;;;;;;;;5042126;28;20080;-79
2024/01/29 03:41:39;;;;;;;10.35;5.18;;;;;;;;;;5034860;28;20044;-79
2024/01/29 03:44:04;;;;;;;4.57;3.03;;;;;;;;;;5029957;28;20040;-80
2024/01/29 03:46:29;;;;;;;7.07;2.58;;;;;;;;;;5012361;28;20033;-79
2024/01/29 03:48:55;;;;;;;1.50;1.30;;;;;;;;;;5046226;28;20033;-79
2024/01/29 03:51:20;;;;;;;3.33;1.90;;;;;;;;;;5031901;28;20136;-79
2024/01/29 03:53:45;;;;;;;3.50;2.65;;;;;;;;;;5034063;28;20059;-79
2024/01/29 03:56:11;;;;;;;7.75;3.00;;;;;;;;;;5020914;28;20073;-79
2024/01/29 03:58:36;;;;;;;4.40;2.78;;;;;;;;;;5034067;28;20045;-79
2024/01/29 04:01:02;;;;;;;4.05;2.15;;;;;;;;;;5027193;28;20041;-79
2024/01/29 04:03:27;;;;;;;2.92;1.70;;;;;;;;;;5037108;28;20037;-79
2024/01/29 04:05:52;;;;;;;1.05;0.70;;;;;;;;;;5030276;28;20037;-79
2024/01/29 04:08:18;;;;;;;2.47;1.80;;;;;;;;;;5026948;28;20038;-79
2024/01/29 04:10:43;;;;;;;3.90;2.00;;;;;;;;;;5025996;28;20123;-79
2024/01/29 04:13:08;;;;;;;4.03;1.23;;;;;;;;;;5039447;28;20128;-79
2024/01/29 04:15:34;;;;;;;1.40;1.13;;;;;;;;;;5022973;28;20524;-79
2024/01/29 04:17:59;;;;;;;1.67;0.90;;;;;;;;;;5027917;28;20105;-79
2024/01/29 04:20:24;;;;;;;2.97;1.65;;;;;;;;;;5025192;28;20033;-80
2024/01/29 04:22:50;;;;;;;0.90;0.85;;;;;;;;;;5038956;28;20044;-80
2024/01/29 04:25:15;;;;;;;1.40;1.20;;;;;;;;;;5030026;28;20037;-79
2024/01/29 04:27:41;;;;;;;2.47;1.35;;;;;;;;;;5038534;28;20135;-78
2024/01/29 04:30:07;;;;;;;2.40;1.75;;;;;;;;;;5016089;28;20509;-79
2024/01/29 04:32:32;;;;;;;1.42;0.85;;;;;;;;;;5029101;28;20041;-80
2024/01/29 04:34:57;;;;;;;1.00;0.82;;;;;;;;;;5017359;28;20075;-80
2024/01/29 04:37:24;;;;;;;3.45;1.48;;;;;;;;;;5008114;28;20041;-78
2024/01/29 04:39:49;;;;;;;3.35;2.28;;;;;;;;;;5030528;28;20048;-79
2024/01/29 04:42:15;;;;;;;3.13;2.30;;;;;;;;;;5035862;28;20033;-80
2024/01/29 04:44:40;;;;;;;3.15;1.80;;;;;;;;;;5026168;28;20078;-81
2024/01/29 04:47:06;;;;;;;3.15;2.00;;;;;;;;;;5035989;28;20040;-82
2024/01/29 04:49:31;;;;;;;2.47;1.55;;;;;;;;;;5034192;28;20048;-80
2024/01/29 04:51:56;;;;;;;4.43;1.85;;;;;;;;;;5034340;28;20029;-83
2024/01/29 04:54:22;;;;;;;2.25;1.50;;;;;;;;;;5039485;28;20036;-79
2024/01/29 04:56:47;;;;;;;1.80;1.45;;;;;;;;;;5041341;28;20037;-82
2024/01/29 04:59:13;;;;;;;0.60;0.60;;;;;;;;;;5015661;28;20079;-78
2024/01/29 05:01:38;;;;;;;1.90;1.20;;;;;;;;;;5015698;28;20037;-81
2024/01/29 05:04:04;;;;;;;1.52;0.75;;;;;;;;;;5022740;28;20052;-78
2024/01/29 05:06:30;;;;;;;2.70;1.00;;;;;;;;;;5020575;28;20039;-79
2024/01/29 05:08:55;;;;;;;1.35;1.08;;;;;;;;;;5034358;28;20042;-82
2024/01/29 05:11:20;;;;;;;0.80;0.80;;;;;;;;;;5016817;28;20041;-82
2024/01/29 05:13:46;;;;;;;0.80;0.80;;;;;;;;;;5014600;28;20383;-82
2024/01/29 05:16:11;;;;;;;1.10;0.60;;;;;;;;;;5024851;28;20075;-79
2024/01/29 05:18:37;;;;;;;3.90;2.45;;;;;;;;;;5024056;28;20502;-80
2024/01/29 05:21:06;;;;;;;1.95;1.42;;;;;;;;;;5007002;28;20049;-78
2024/01/29 05:23:31;;;;;;;0.90;0.60;;;;;;;;;;5015967;28;20544;-85
2024/01/29 05:25:57;;;;;;;1.40;0.98;;;;;;;;;;5036590;28;20045;-78
2024/01/29 05:28:22;;;;;;;4.28;1.60;;;;;;;;;;5014222;28;20037;-81
2024/01/29 05:30:50;;;;;;;0.98;0.70;;;;;;;;;;5010887;28;20056;-78
2024/01/29 05:33:15;;;;;;;0.75;0.70;;;;;;;;;;5023922;28;20126;-79
2024/01/29 05:35:41;;;;;;;1.17;0.68;;;;;;;;;;5028831;28;20037;-79
2024/01/29 05:38:06;;;;;;;0.85;0.60;;;;;;;;;;5033816;28;20040;-80
2024/01/29 05:40:31;;;;;;;0.57;0.57;;;;;;;;;;5036322;28;20044;-78
2024/01/29 05:42:57;;;;;;;2.58;1.65;;;;;;;;;;5024914;28;20037;-79
2024/01/29 05:45:22;;;;;;;2.63;1.80;;;;;;;;;;5017565;28;20033;-78
2024/01/29 05:47:48;;;;;;;2.63;1.33;;;;;;;;;;5031249;28;20033;-79
2024/01/29 05:50:14;;;;;;;2.42;1.48;;;;;;;;;;5023380;28;21151;-78
2024/01/29 05:52:39;;;;;;;2.50;1.05;;;;;;;;;;5033680;28;20041;-77
2024/01/29 05:55:05;;;;;;;3.33;1.95;;;;;;;;;;5030227;28;20448;-76
2024/01/29 05:57:31;;;;;;;2.45;1.50;;;;;;;;;;4999304;28;20127;-77
2024/01/29 05:59:56;;;;;;;1.25;1.10;;;;;;;;;;5017117;28;20029;-78
2024/01/29 06:02:22;;;;;;;3.78;1.65;;;;;;;;;;5025580;28;20056;-78
2024/01/29 06:04:47;;;;;;;0.77;0.77;;;;;;;;;;5016759;28;20588;-78
2024/01/29 06:07:12;;;;;;;7.75;3.75;;;;;;;;;;5023899;28;20037;-77
2024/01/29 06:09:38;;;;;;;10.60;3.85;;;;;;;;;;5023883;28;20059;-79
2024/01/29 06:12:03;;;;;;;10.85;4.70;;;;;;;;;;5017795;28;20047;-81
2024/01/29 06:14:29;;;;;;;12.95;5.82;;;;;;;;;;5017662;28;20061;-78
2024/01/29 06:16:57;;;;;;;8.80;5.22;;;;;;;;;;5028015;28;20040;-81
2024/01/29 06:19:23;;;;;;;10.20;5.72;;;;;;;;;;5032917;28;20063;-77
2024/01/29 06:21:49;;;;;;;8.55;4.75;;;;;;;;;;5027978;28;20033;-80
2024/01/29 06:24:14;;;;;;;11.27;5.30;;;;;;;;;;5019360;28;20041;-76
2024/01/29 06:26:40;;;;;;;8.52;4.28;;;;;;;;;;5026959;28;20033;-78
2024/01/29 06:29:06;;;;;;;1.30;1.20;;;;;;;;;;5023529;28;20616;-78
2024/01/29 06:31:32;;;;;;;7.97;4.00;;;;;;;;;;5027112;28;20045;-83
2024/01/29 06:33:57;;;;;;;1.20;1.05;;;;;;;;;;5026137;28;20099;-79
2024/01/29 06:36:23;;;;;;;4.32;3.30;;;;;;;;;;5027079;28;20037;-79
2024/01/29 06:38:48;;;;;;;6.03;3.22;;;;;;;;;;5011202;28;20112;-78
2024/01/29 06:41:20;;;;;;;8.13;4.18;;;;;;;;;;5019244;28;20092;-82
2024/01/29 06:43:45;;;;;;;3.15;0.93;;;;;;;;;;5023096;28;20037;-77
2024/01/29 06:46:11;;;;;;;10.70;3.17;;;;;;;;;;5031592;28;20032;-78
2024/01/29 06:48:37;;;;;;;3.47;2.10;;;;;;;;;;5023770;28;20082;-81
2024/01/29 06:51:03;;;;;;;8.25;3.58;;;;;;;;;;5014232;28;20163;-78
2024/01/29 06:53:28;;;;;;;8.73;3.92;;;;;;;;;;5021810;28;20405;-78
2024/01/29 06:55:54;;;;;;;13.52;2.72;;;;;;;;;;5034447;28;20037;-76
2024/01/29 06:58:20;;;;;;;7.07;3.30;;;;;;;;;;5035823;28;20044;-76
2024/01/29 07:00:46;;;;;;;5.30;2.30;;;;;;;;;;5030825;28;20056;-77
2024/01/29 07:03:11;;;;;;;5.28;1.98;;;;;;;;;;5019928;28;20194;-76
2024/01/29 07:05:37;;;;;;;5.13;1.90;;;;;;;;;;5020536;28;20420;-77
2024/01/29 07:08:02;;;;;;;4.13;2.05;;;;;;;;;;5023129;28;20045;-77
2024/01/29 07:10:28;;;;;;;2.03;0.90;;;;;;;;;;5014789;28;20040;-77
2024/01/29 07:12:53;;;;;;;3.15;2.38;;;;;;;;;;5017875;28;20045;-76
2024/01/29 07:15:19;;;;;;;2.00;1.50;;;;;;;;;;5018451;28;20051;-77
2024/01/29 07:17:45;;;;;;;2.85;1.75;;;;;;;;;;5032237;28;20049;-77
2024/01/29 07:20:11;;;;;;;3.67;1.80;;;;;;;;;;5027253;28;20422;-77
2024/01/29 07:22:38;;;;;;;2.92;1.33;;;;;;;;;;5014298;28;20033;-76
2024/01/29 07:25:05;;;;;;;4.72;2.65;;;;;;;;;;5024665;28;20057;-77
2024/01/29 07:27:30;;;;;;;3.83;2.20;;;;;;;;;;5019226;28;20116;-76
2024/01/29 07:29:56;;;;;;;1.25;1.13;;;;;;;;;;5030384;28;20041;-76
2024/01/29 07:32:21;;;;;;;3.15;1.73;;;;;;;;;;5009809;28;20045;-77
2024/01/29 07:34:46;;;;;;;3.50;1.55;;;;;;;;;;5036469;28;20044;-76
2024/01/29 07:37:12;;;;;;;4.43;2.05;;;;;;;;;;5024798;28;20032;-76
2024/01/29 07:39:38;;;;;;;5.88;2.45;;;;;;;;;;5035485;28;20037;-80
2024/01/29 07:42:04;;;;;;;5.32;2.30;;;;;;;;;;5021875;28;20655;-81
2024/01/29 07:44:29;;;;;;;7.97;2.65;;;;;;;;;;5031137;28;20033;-80
2024/01/29 07:46:55;;;;;;;2.17;1.40;;;;;;;;;;5034677;28;20041;-77
2024/01/29 07:49:20;;;;;;;1.88;1.27;;;;;;;;;;5022251;28;20079;-79
2024/01/29 07:51:45;;;;;;;1.77;1.50;;;;;;;;;;5027352;28;20494;-76
2024/01/29 07:54:12;;;;;;;3.85;2.00;;;;;;;;;;5035424;28;20041;-82
2024/01/29 07:56:39;;;;;;;2.95;1.40;;;;;;;;;;5029664;28;20095;-81
2024/01/29 07:59:05;;;;;;;4.53;2.80;;;;;;;;;;5017051;28;20045;-80
2024/01/29 08:01:30;;;;;;;2.28;1.40;;;;;;;;;;5026760;28;20123;-77
2024/01/29 08:03:55;;;;;;;5.38;2.08;;;;;;;;;;5035710;28;20073;-76
2024/01/29 08:06:21;;;;;;;3.85;1.92;;;;;;;;;;5019153;28;20039;-77
2024/01/29 08:08:46;;;;;;;3.17;1.60;;;;;;;;;;5023247;28;20495;-77
2024/01/29 08:11:12;;;;;;;4.50;1.65;;;;;;;;;;5026557;28;20064;-79
2024/01/29 08:13:37;;;;;;;2.05;1.30;;;;;;;;;;5031538;28;20576;-78
2024/01/29 08:16:03;;;;;;;4.60;1.75;;;;;;;;;;5025356;28;20041;-77
2024/01/29 08:18:28;;;;;;;1.20;0.90;;;;;;;;;;5026496;28;20488;-78
2024/01/29 08:20:55;;;;;;;2.00;1.10;;;;;;;;;;5004830;28;20033;-78
2024/01/29 08:23:23;;;;;;;2.45;1.55;;;;;;;;;;5023580;28;20119;-78
2024/01/29 08:25:48;;;;;;;2.58;1.42;;;;;;;;;;5025508;28;20029;-78
2024/01/29 08:28:13;;;;;;;5.30;2.33;;;;;;;;;;5035292;28;20033;-78
2024/01/29 08:30:39;;;;;;;1.73;1.08;;;;;;;;;;5026947;28;20090;-77
2024/01/29 08:33:04;;;;;;;2.08;1.42;;;;;;;;;;5021029;28;20112;-77
2024/01/29 08:35:30;;;;;;;4.53;2.35;;;;;;;;;;5021897;28;20681;-77
2024/01/29 08:37:55;;;;;;;6.47;3.30;;;;;;;;;;5026432;28;20036;-78
2024/01/29 08:40:20;;;;;;;5.55;1.73;;;;;;;;;;5021941;28;20049;-78
2024/01/29 08:42:47;;;;;;;2.25;1.27;;;;;;;;;;5033872;28;20037;-78
2024/01/29 08:45:16;;;;;;;5.13;2.67;;;;;;;;;;5041334;28;20041;-78
2024/01/29 08:47:42;;;;;;;12.65;6.40;;;;;;;;;;5031398;28;20107;-77
2024/01/29 08:50:08;;;;;;;23.02;11.13;;;;;;;;;;5032386;28;20037;-79
2024/01/29 08:52:33;;;;;;;16.42;8.52;;;;;;;;;;5030916;28;20033;-78
2024/01/29 08:54:59;;;;;;;17.27;8.30;;;;;;;;;;5039196;28;20123;-78
2024/01/29 08:57:24;;;;;;;16.92;8.50;;;;;;;;;;5022839;28;20532;-79
2024/01/29 08:59:49;;;;;;;3.97;2.83;;;;;;;;;;5026689;28;20120;-79
2024/01/29 09:02:15;;;;;;;10.13;3.97;;;;;;;;;;5031987;28;20095;-78
2024/01/29 09:04:41;;;;;;;8.43;4.13;;;;;;;;;;5040073;28;20063;-79
2024/01/29 09:07:06;;;;;;;9.68;4.90;;;;;;;;;;5041152;28;20047;-78
2024/01/29 09:09:31;;;;;;;2.53;1.70;;;;;;;;;;5027680;28;20042;-78
2024/01/29 09:11:57;;;;;;;3.17;2.30;;;;;;;;;;5024743;28;20522;-79
2024/01/29 09:14:24;;;;;;;4.95;2.95;;;;;;;;;;5013013;28;20041;-78
2024/01/29 09:16:50;;;;;;;10.00;5.63;;;;;;;;;;5028636;28;20098;-77
2024/01/29 09:19:16;;;;;;;10.25;5.72;;;;;;;;;;5043420;28;20025;-78
2024/01/29 09:21:47;;;;;;;14.15;6.30;;;;;;;;;;5039203;28;20041;-78
2024/01/29 09:24:13;;;;;;;16.00;6.32;;;;;;;;;;5040396;28;20119;-78
2024/01/29 09:26:38;;;;;;;7.40;3.78;;;;;;;;;;5040468;28;20083;-78
2024/01/29 09:29:03;;;;;;;13.75;6.15;;;;;;;;;;5034046;28;20043;-78
2024/01/29 09:31:29;;;;;;;15.32;6.85;;;;;;;;;;5027400;28;20087;-78
2024/01/29 09:33:54;;;;;;;9.65;4.53;;;;;;;;;;5042881;28;20090;-78
2024/01/29 09:36:19;;;;;;;5.78;2.50;;;;;;;;;;5021465;28;20048;-78
2024/01/29 09:38:46;;;;;;;10.70;5.50;;;;;;;;;;5037495;28;20174;-78
2024/01/29 09:41:11;;;;;;;4.30;2.40;;;;;;;;;;5029721;28;20045;-78
2024/01/29 09:43:39;;;;;;;11.35;4.85;;;;;;;;;;5014235;28;20045;-79
2024/01/29 09:46:05;;;;;;;22.48;8.48;;;;;;;;;;5021759;28;20476;-78
2024/01/29 09:48:33;;;;;;;17.77;6.38;;;;;;;;;;5031739;28;20032;-78
2024/01/29 09:51:00;;;;;;;14.30;7.20;;;;;;;;;;5032749;28;20440;-79
2024/01/29 09:53:26;;;;;;;6.25;2.97;;;;;;;;;;5030571;28;20045;-78
2024/01/29 09:55:51;;;;;;;9.40;4.72;;;;;;;;;;5031268;28;20535;-79
2024/01/29 09:58:17;;;;;;;5.00;2.53;;;;;;;;;;5024586;28;20044;-77
2024/01/29 10:00:42;;;;;;;9.77;5.40;;;;;;;;;;5029702;28;20549;-78
2024/01/29 10:03:15;;;;;;;8.23;3.58;;;;;;;;;;5037087;28;20480;-79
2024/01/29 10:05:42;;;;;;;8.35;3.90;;;;;;;;;;5028443;28;20032;-78
2024/01/29 10:08:08;;;;;;;7.22;3.85;;;;;;;;;;5036867;28;20048;-77
2024/01/29 10:10:33;;;;;;;4.95;2.70;;;;;;;;;;5037241;28;20059;-78
2024/01/29 10:13:02;;;;;;;7.90;3.47;;;;;;;;;;5027543;28;20036;-79
2024/01/29 10:15:29;;;;;;;2.35;1.90;;;;;;;;;;5031500;28;20036;-78
2024/01/29 10:17:54;;;;;;;5.95;3.97;;;;;;;;;;5036528;28;20049;-78
2024/01/29 10:20:20;;;;;;;6.18;2.90;;;;;;;;;;5019493;28;20151;-78
2024/01/29 10:22:46;;;;;;;6.70;4.20;;;;;;;;;;5025636;28;20103;-78
2024/01/29 10:25:13;;;;;;;8.95;4.43;;;;;;;;;;5025324;28;20090;-78
2024/01/29 10:27:39;;;;;;;7.97;4.88;;;;;;;;;;5018957;28;20057;-78
2024/01/29 10:30:05;;;;;;;10.95;5.80;;;;;;;;;;5025225;28;20119;-78
2024/01/29 10:32:31;;;;;;;13.80;5.50;;;;;;;;;;5033253;28;20036;-78
2024/01/29 10:34:56;;;;;;;7.88;4.70;;;;;;;;;;5031502;28;20099;-79
2024/01/29 10:37:25;;;;;;;4.25;2.72;;;;;;;;;;5031499;28;20047;-78
2024/01/29 10:39:53;;;;;;;8.88;4.85;;;;;;;;;;5019506;28;20046;-78
2024/01/29 10:42:20;;;;;;;10.50;5.93;;;;;;;;;;5038053;28;20049;-78
2024/01/29 10:44:46;;;;;;;7.75;5.20;;;;;;;;;;5015078;28;20072;-79
2024/01/29 10:47:28;;;;;;;4.10;2.80;;;;;;;;;;5034235;28;20064;-78
2024/01/29 10:49:56;;;;;;;10.27;5.57;;;;;;;;;;5038343;28;20037;-79
2024/01/29 10:52:23;;;;;;;5.70;2.63;;;;;;;;;;5035665;28;20128;-78
2024/01/29 10:54:49;;;;;;;9.82;5.43;;;;;;;;;;5032762;28;20045;-78
2024/01/29 10:57:15;;;;;;;8.68;4.55;;;;;;;;;;5036575;28;20040;-77
2024/01/29 10:59:42;;;;;;;10.07;4.53;;;;;;;;;;5033853;28;20040;-78
2024/01/29 11:02:12;;;;;;;9.45;4.75;;;;;;;;;;5033965;28;20112;-78
2024/01/29 11:04:37;;;;;;;8.35;4.50;;;;;;;;;;5036922;28;20136;-78
2024/01/29 11:07:12;;;;;;;9.55;4.18;;;;;;;;;;5023682;28;20202;-78
2024/01/29 11:09:50;;;;;;;8.98;5.22;;;;;;;;;;5030651;28;20044;-78
2024/01/29 11:12:16;;;;;;;4.20;2.65;;;;;;;;;;5037334;28;20033;-78
2024/01/29 11:14:47;;;;;;;9.27;3.92;;;;;;;;;;5035095;28;20040;-79
2024/01/29 11:17:13;;;;;;;5.07;3.10;;;;;;;;;;5028941;28;20068;-78
2024/01/29 11:19:38;;;;;;;4.13;2.15;;;;;;;;;;5011001;28;20513;-79
2024/01/29 11:22:04;;;;;;;4.93;3.58;;;;;;;;;;5023477;28;20068;-78
2024/01/29 11:24:31;;;;;;;6.90;3.95;;;;;;;;;;5031838;28;20469;-78
2024/01/29 11:27:08;;;;;;;5.60;3.35;;;;;;;;;;5034726;28;20032;-79
2024/01/29 11:29:39;;;;;;;6.40;2.85;;;;;;;;;;5031569;28;20037;-78
2024/01/29 11:32:05;;;;;;;5.20;2.78;;;;;;;;;;5024689;28;20053;-78
2024/01/29 11:34:31;;;;;;;6.55;3.70;;;;;;;;;;5029778;28;20113;-79
2024/01/29 11:36:57;;;;;;;2.60;1.80;;;;;;;;;;5024362;28;20063;-79
2024/01/29 11:39:24;;;;;;;5.03;2.90;;;;;;;;;;5029094;28;20110;-79
2024/01/29 11:41:52;;;;;;;3.60;2.60;;;;;;;;;;5037535;28;20223;-79
2024/01/29 11:44:18;;;;;;;6.80;4.05;;;;;;;;;;5041271;28;20037;-79
2024/01/29 11:46:44;;;;;;;5.88;2.67;;;;;;;;;;5015156;28;20142;-78
2024/01/29 11:49:09;;;;;;;3.80;2.50;;;;;;;;;;5023032;28;20112;-78
2024/01/29 11:51:35;;;;;;;4.75;2.78;;;;;;;;;;5022792;28;20087;-78
2024/01/29 11:54:00;;;;;;;5.22;3.28;;;;;;;;;;5039486;28;20048;-79
2024/01/29 11:56:25;;;;;;;6.07;3.40;;;;;;;;;;5024590;28;20476;-79
2024/01/29 11:59:17;;;;;;;3.60;2.53;;;;;;;;;;5034474;28;20172;-79
2024/01/29 12:01:45;;;;;;;2.20;1.73;;;;;;;;;;5013675;28;20042;-79
2024/01/29 12:04:11;;;;;;;5.68;2.30;;;;;;;;;;5046060;28;20125;-79
2024/01/29 12:06:37;;;;;;;6.72;3.00;;;;;;;;;;5037879;28;20037;-79
2024/01/29 12:09:07;;;;;;;7.15;3.97;;;;;;;;;;5032987;28;20057;-80
2024/01/29 12:11:32;;;;;;;4.28;2.78;;;;;;;;;;5032798;28;20033;-79
2024/01/29 12:13:58;;;;;;;4.18;2.22;;;;;;;;;;5025969;28;20041;-79
2024/01/29 12:16:24;;;;;;;4.13;2.58;;;;;;;;;;5037251;28;20072;-79
2024/01/29 12:18:50;;;;;;;5.72;3.67;;;;;;;;;;5020483;28;20029;-79
2024/01/29 12:21:15;;;;;;;4.70;2.88;;;;;;;;;;5039397;28;20040;-79
2024/01/29 12:23:41;;;;;;;4.07;2.08;;;;;;;;;;5028052;28;20053;-79
2024/01/29 12:26:06;;;;;;;3.40;2.50;;;;;;;;;;5041348;28;20108;-79
2024/01/29 12:28:32;;;;;;;4.30;3.13;;;;;;;;;;5028659;28;20095;-79
2024/01/29 12:31:01;;;;;;;4.65;3.20;;;;;;;;;;5035658;28;20072;-79
2024/01/29 12:33:30;;;;;;;5.65;3.42;;;;;;;;;;5026738;28;20365;-79
2024/01/29 12:35:57;;;;;;;6.55;3.80;;;;;;;;;;5038422;28;20037;-79
2024/01/29 12:38:22;;;;;;;7.55;3.65;;;;;;;;;;5046359;28;20076;-79
2024/01/29 12:40:53;;;;;;;6.50;3.97;;;;;;;;;;5035433;28;20072;-79
2024/01/29 12:43:25;;;;;;;3.92;2.42;;;;;;;;;;5016656;28;20046;-79
2024/01/29 12:45:50;;;;;;;6.38;4.20;;;;;;;;;;5016403;28;20474;-78
2024/01/29 12:48:19;;;;;;;5.10;3.67;;;;;;;;;;5026001;28;20163;-79
2024/01/29 12:50:44;;;;;;;6.55;3.75;;;;;;;;;;5027507;28;20044;-79
2024/01/29 12:53:10;;;;;;;5.05;2.67;;;;;;;;;;5022115;28;20041;-79
2024/01/29 12:55:36;;;;;;;7.05;4.10;;;;;;;;;;5020796;28;20045;-80
2024/01/29 12:58:02;;;;;;;8.73;5.13;;;;;;;;;;5017029;28;20095;-79
2024/01/29 13:00:28;;;;;;;7.05;3.95;;;;;;;;;;5023027;28;20091;-78
2024/01/29 13:02:53;;;;;;;6.80;3.58;;;;;;;;;;5027547;28;20048;-78
2024/01/29 13:05:19;;;;;;;4.28;2.50;;;;;;;;;;5034202;28;20045;-80
2024/01/29 13:07:44;;;;;;;6.32;3.92;;;;;;;;;;5010775;28;20053;-79
2024/01/29 13:10:11;;;;;;;8.30;3.65;;;;;;;;;;5028125;28;20036;-78
2024/01/29 13:12:37;;;;;;;4.40;3.03;;;;;;;;;;5036370;28;20512;-80
2024/01/29 13:15:04;;;;;;;5.88;3.50;;;;;;;;;;5040457;28;20044;-79
2024/01/29 13:17:29;;;;;;;4.38;3.40;;;;;;;;;;5043635;28;20056;-79
2024/01/29 13:19:55;;;;;;;5.95;3.33;;;;;;;;;;5035917;28;20037;-79
2024/01/29 13:22:21;;;;;;;2.80;2.30;;;;;;;;;;5041654;28;20071;-79
2024/01/29 13:24:47;;;;;;;5.82;3.33;;;;;;;;;;5031595;28;20097;-79
2024/01/29 13:27:12;;;;;;;6.45;3.63;;;;;;;;;;5044806;28;20044;-78
2024/01/29 13:29:38;;;;;;;6.43;3.80;;;;;;;;;;5038561;28;20041;-79
2024/01/29 13:32:03;;;;;;;7.10;3.50;;;;;;;;;;5041471;28;20055;-79
2024/01/29 13:34:29;;;;;;;7.03;3.45;;;;;;;;;;5034607;28;20049;-79
2024/01/29 13:36:55;;;;;;;5.75;3.08;;;;;;;;;;5039097;28;20037;-77
2024/01/29 13:39:21;;;;;;;5.50;3.15;;;;;;;;;;5032978;28;20032;-79
2024/01/29 13:41:46;;;;;;;7.65;3.80;;;;;;;;;;5042400;28;20116;-79
2024/01/29 13:44:11;;;;;;;3.35;2.95;;;;;;;;;;5046241;28;20135;-79
2024/01/29 13:46:37;;;;;;;6.07;4.20;;;;;;;;;;5033193;28;20596;-77
2024/01/29 13:49:02;;;;;;;4.82;3.03;;;;;;;;;;5020193;28;20036;-79
2024/01/29 13:51:28;;;;;;;5.80;3.58;;;;;;;;;;5035118;28;20041;-79
2024/01/29 13:53:53;;;;;;;5.68;3.63;;;;;;;;;;5023013;28;20037;-78
2024/01/29 13:56:20;;;;;;;5.53;3.55;;;;;;;;;;5041205;28;20075;-79
2024/01/29 13:58:46;;;;;;;7.75;4.05;;;;;;;;;;5043108;28;20100;-79
2024/01/29 14:01:11;;;;;;;4.85;3.17;;;;;;;;;;5046650;28;20095;-80
2024/01/29 14:03:38;;;;;;;5.63;3.17;;;;;;;;;;5037306;28;20116;-79
2024/01/29 14:06:05;;;;;;;4.32;3.22;;;;;;;;;;5042342;28;20060;-80
2024/01/29 14:08:30;;;;;;;6.70;3.67;;;;;;;;;;5029492;28;20041;-79
2024/01/29 14:10:56;;;;;;;4.72;2.72;;;;;;;;;;5039813;28;20033;-78
2024/01/29 14:13:21;;;;;;;4.57;3.17;;;;;;;;;;5038473;28;20107;-79
2024/01/29 14:15:47;;;;;;;4.45;2.80;;;;;;;;;;5035605;28;20037;-79
2024/01/29 14:18:12;;;;;;;4.72;2.63;;;;;;;;;;5041143;28;20037;-80
2024/01/29 14:20:37;;;;;;;3.85;2.47;;;;;;;;;;5042620;28;20374;-80
2024/01/29 14:23:05;;;;;;;6.05;3.40;;;;;;;;;;5024989;28;20038;-78
2024/01/29 14:25:33;;;;;;;6.60;3.15;;;;;;;;;;5040306;28;20040;-77
2024/01/29 14:27:58;;;;;;;3.97;2.60;;;;;;;;;;5036125;28;20041;-79
2024/01/29 14:30:23;;;;;;;7.63;6.30;;;;;;;;;;5039063;28;20051;-80
2024/01/29 14:32:49;;;;;;;5.72;3.55;;;;;;;;;;5035153;28;20072;-78